Time;durP1;ratioP1;P1;durP2;ratioP2;P2;SDS_P1;SDS_P2;PMS_P1;PMS_P2;Temp;Humidity;BMP_temperature;BMP_pressure;BME280_temperature;BME280_humidity;BME280_pressure;Samples;Min_cycle;Max_cycle;Signal;HPM_P1;HPM_P2
2022/03/20 00:00:55;;;;;;;;;;;3.00;99.90;;;1.95;63.52;96668.66;10383127;28;1993;-70
2022/03/20 00:05:58;;;;;;;;;;;3.00;99.90;;;1.89;63.33;96672.94;10402046;28;1995;-71
2022/03/20 00:11:02;;;;;;;;;;;3.00;99.90;;;1.90;63.52;96665.78;10383956;28;2278;-70
2022/03/20 00:16:05;;;;;;;;;;;2.90;99.90;;;1.89;63.72;96672.09;10403721;28;1999;-70
2022/03/20 00:21:09;;;;;;;;;;;3.00;99.90;;;1.86;63.89;96667.22;10383735;28;1954;-70
2022/03/20 00:26:13;;;;;;;;;;;3.00;99.90;;;1.81;64.11;96664.31;10400451;28;1930;-71
2022/03/20 00:31:17;;;;;;;;;;;2.90;99.90;;;1.77;64.20;96652.47;10392194;28;1643;-71
2022/03/20 00:36:21;;;;;;;;;;;2.90;99.90;;;1.76;64.39;96666.75;10398185;28;1841;-71
2022/03/20 00:41:24;;;;;;;;;;;2.80;99.90;;;1.70;65.11;96668.34;10401315;28;2167;-72
2022/03/20 00:46:28;;;;;;;;;;;2.80;99.90;;;1.60;65.50;96668.72;10384481;28;1987;-71
2022/03/20 00:51:31;;;;;;;;;;;2.70;99.90;;;1.59;65.32;96661.78;10401788;28;1845;-71
2022/03/20 00:56:35;;;;;;;;;;;2.70;99.90;;;1.58;65.41;96665.41;10402411;28;1868;-71
2022/03/20 01:01:38;;;;;;;;;;;2.70;99.90;;;1.55;65.58;96665.81;10399616;28;2353;-71
2022/03/20 01:06:42;;;;;;;;;;;2.60;99.90;;;1.53;65.81;96667.84;10379442;28;2050;-70
2022/03/20 01:11:45;;;;;;;;;;;2.60;99.90;;;1.43;65.78;96675.31;10388433;28;1917;-71
2022/03/20 01:16:48;;;;;;;;;;;2.50;99.90;;;1.42;66.42;96672.88;10402250;28;1860;-71
2022/03/20 01:21:51;;;;;;;;;;;2.50;99.90;;;1.31;66.69;96667.09;10389779;28;1837;-71
2022/03/20 01:26:54;;;;;;;;;;;2.40;99.90;;;1.35;66.90;96662.25;10407671;28;1975;-71
2022/03/20 01:31:58;;;;;;;;;;;2.40;99.90;;;1.34;66.61;96668.56;10414002;28;1833;-71
2022/03/20 01:37:02;;;;;;;;;;;2.40;99.90;;;1.25;67.24;96665.22;10375436;28;2408;-71
2022/03/20 01:42:05;;;;;;;;;;;2.30;99.90;;;1.21;68.75;96676.38;10385350;28;1901;-70
2022/03/20 01:47:09;;;;;;;;;;;2.30;99.90;;;1.15;68.17;96674.53;10389519;28;1977;-71
2022/03/20 01:52:14;;;;;;;;;;;2.20;99.90;;;1.11;68.13;96674.09;10403427;28;1910;-71
2022/03/20 01:57:19;;;;;;;;;;;2.20;99.90;;;1.12;68.09;96678.38;10398740;28;2099;-70
2022/03/20 02:02:23;;;;;;;;;;;2.20;99.90;;;1.01;69.78;96674.41;10404801;28;1832;-71
2022/03/20 02:07:26;;;;;;;;;;;2.20;99.90;;;1.07;68.36;96678.13;10386862;28;1973;-70
2022/03/20 02:12:30;;;;;;;;;;;2.10;99.90;;;1.07;68.88;96665.69;10401062;28;1931;-71
2022/03/20 02:17:33;;;;;;;;;;;2.10;99.90;;;1.13;68.59;96671.22;10409257;28;2250;-71
2022/03/20 02:22:37;;;;;;;;;;;2.20;99.90;;;1.16;68.42;96670.88;10391777;28;1913;-71
2022/03/20 02:27:41;;;;;;;;;;;2.20;99.90;;;1.08;68.92;96664.69;10385889;28;1971;-71
2022/03/20 02:32:44;;;;;;;;;;;2.20;99.90;;;1.00;69.02;96662.19;10404661;28;2046;-71
2022/03/20 02:37:47;;;;;;;;;;;2.10;99.90;;;0.96;69.50;96660.94;10383255;28;1929;-71
2022/03/20 02:42:51;;;;;;;;;;;2.00;99.90;;;0.97;69.20;96659.94;10385596;28;2002;-70
2022/03/20 02:47:54;;;;;;;;;;;2.00;99.90;;;0.91;69.18;96660.69;10403318;28;1918;-70
2022/03/20 02:52:58;;;;;;;;;;;2.00;99.90;;;0.90;69.93;96652.94;10383671;28;2098;-71
2022/03/20 02:58:01;;;;;;;;;;;2.00;99.90;;;0.77;70.21;96657.13;10384164;28;1868;-71
2022/03/20 03:03:05;;;;;;;;;;;1.90;99.90;;;0.74;70.58;96649.53;10400087;28;1838;-71
2022/03/20 03:13:29;;;;;;;;;;;1.80;99.90;;;0.52;72.34;96667.25;10389937;28;1915;-70
2022/03/20 03:18:32;;;;;;;;;;;1.70;99.90;;;0.36;73.02;96685.19;10403590;28;1938;-71
2022/03/20 03:23:36;;;;;;;;;;;2.10;99.90;;;0.26;73.78;96680.22;10402602;28;1916;-71
2022/03/20 03:28:40;;;;;;;;;;;1.50;99.90;;;0.31;73.53;96691.03;10386352;28;1914;-71
2022/03/20 03:39:02;;;;;;;;;;;1.40;99.90;;;0.50;73.27;96703.66;10402102;28;1944;-71
2022/03/20 03:44:07;;;;;;;;;;;1.50;99.90;;;0.42;73.17;96701.13;10384081;28;1882;-70
2022/03/20 03:49:09;;;;;;;;;;;1.50;99.90;;;0.41;73.03;96704.78;10382661;28;1910;-71
2022/03/20 03:54:13;;;;;;;;;;;1.50;99.90;;;0.42;73.38;96706.41;10401396;28;1856;-72
2022/03/20 03:59:20;;;;;;;;;;;1.50;99.90;;;0.28;74.66;96703.81;10404922;28;1842;-71
2022/03/20 04:04:23;;;;;;;;;;;1.50;99.90;;;0.41;74.06;96706.63;10403465;28;1829;-71
2022/03/20 04:09:26;;;;;;;;;;;1.50;99.90;;;0.36;74.09;96709.81;10382851;28;1914;-71
2022/03/20 04:14:30;;;;;;;;;;;1.50;99.90;;;0.23;74.84;96715.75;10388128;28;2065;-71
2022/03/20 04:19:33;;;;;;;;;;;1.40;99.90;;;0.33;74.89;96715.47;10401300;28;2145;-71
2022/03/20 04:24:37;;;;;;;;;;;1.40;99.90;;;0.41;74.78;96718.00;10406591;28;1992;-71
2022/03/20 04:29:40;;;;;;;;;;;1.40;99.90;;;0.40;74.84;96719.03;10399981;28;1965;-72
2022/03/20 04:34:44;;;;;;;;;;;1.50;99.90;;;0.45;74.56;96716.63;10400352;28;1821;-71
2022/03/20 04:39:48;;;;;;;;;;;1.50;99.90;;;0.44;74.70;96714.97;10404551;28;2035;-71
2022/03/20 04:44:51;;;;;;;;;;;1.50;99.90;;;0.44;74.30;96720.25;10411386;28;1793;-71
2022/03/20 05:00:36;;;;;;;;;;;1.40;99.90;;;0.23;75.69;96731.63;10405026;28;1829;-72
2022/03/20 05:05:39;;;;;;;;;;;1.30;99.90;;;0.22;75.81;96740.56;10376485;28;1859;-71
2022/03/20 05:16:04;;;;;;;;;;;1.20;99.90;;;0.14;76.01;96759.19;10403987;28;2035;-71
2022/03/20 05:21:10;;;;;;;;;;;1.30;99.90;;;0.15;75.76;96763.47;10408177;28;1853;-70
2022/03/20 05:26:13;;;;;;;;;;;1.20;99.90;;;0.14;76.16;96766.31;10404900;28;1865;-71
2022/03/20 05:31:16;;;;;;;;;;;1.20;99.90;;;0.13;76.02;96767.31;10405261;28;1975;-70
2022/03/20 05:36:20;;;;;;;;;;;1.20;99.90;;;0.28;75.75;96764.66;10381607;28;1891;-70
2022/03/20 05:46:46;;;;;;;;;;;1.30;99.90;;;0.45;74.76;96772.19;10470108;22;3618;-72
2022/03/20 05:51:49;;;;;;;;;;;1.30;99.90;;;0.54;73.89;96772.88;10539400;28;2041;-71
2022/03/20 06:02:12;;;;;;;;;;;1.70;99.90;;;0.75;73.66;96778.22;10562609;28;1910;-71
2022/03/20 06:07:15;;;;;;;;;;;1.70;99.90;;;0.96;72.97;96789.84;10545325;27;2099;-69
2022/03/20 06:12:19;;;;;;;;;;;1.80;99.90;;;1.07;71.33;96789.31;10540953;28;2026;-71
2022/03/20 06:17:22;;;;;;;;;;;1.90;99.90;;;1.32;71.07;96797.72;10564684;27;2207;-70
2022/03/20 06:22:28;;;;;;;;;;;2.10;99.90;;;1.40;69.83;96797.59;10553696;28;2153;-70
2022/03/20 06:27:31;;;;;;;;;;;2.30;99.90;;;1.40;69.65;96807.34;10568943;27;1917;-70
2022/03/20 06:32:35;;;;;;;;;;;2.30;99.90;;;1.53;68.99;96816.25;10568621;27;2215;-71
2022/03/20 06:37:39;;;;;;;;;;;2.30;99.90;;;1.48;68.47;96813.34;10551358;28;2134;-71
2022/03/20 06:42:42;;;;;;;;;;;2.40;99.90;;;1.62;67.97;96823.03;10538813;28;1657;-71
2022/03/20 06:47:45;;;;;;;;;;;2.50;99.90;;;1.78;68.50;96813.16;10540943;28;1917;-69
2022/03/20 06:52:49;;;;;;;;;;;2.60;99.90;;;1.94;67.20;96822.66;10542749;28;1918;-69
2022/03/20 06:57:52;;;;;;;;;;;2.80;99.90;;;2.02;66.58;96825.97;10561432;27;1881;-71
2022/03/20 07:02:55;;;;;;;;;;;2.90;99.90;;;2.09;66.45;96826.84;10536929;27;1846;-71
2022/03/20 07:08:01;;;;;;;;;;;2.90;99.90;;;2.22;65.28;96826.09;10536054;28;2081;-70
2022/03/20 07:18:39;;;;;;;;;;;3.20;99.90;;;2.43;63.86;96838.50;10409102;28;2464;-71
2022/03/20 07:23:43;;;;;;;;;;;3.20;99.90;;;2.70;63.16;96842.09;10520912;28;1788;-71
2022/03/20 07:34:06;;;;;;;;;;;3.70;99.90;;;2.77;62.59;96852.72;10554920;28;1747;-69
2022/03/20 07:39:09;;;;;;;;;;;3.70;99.90;;;2.90;63.35;96853.59;10537617;28;1954;-70
2022/03/20 07:44:12;;;;;;;;;;;3.60;99.90;;;3.09;61.98;96852.03;10565640;28;1796;-70
2022/03/20 07:49:15;;;;;;;;;;;4.00;99.90;;;3.48;60.75;96848.63;10546672;27;1913;-71
2022/03/20 07:54:18;;;;;;;;;;;4.10;99.90;;;3.54;59.65;96852.31;10532979;27;1862;-71
2022/03/20 07:59:21;;;;;;;;;;;4.40;99.90;;;3.58;59.70;96858.06;10541230;28;2000;-70
2022/03/20 08:04:24;;;;;;;;;;;4.50;99.90;;;3.79;60.04;96860.53;10559745;28;1863;-70
2022/03/20 08:09:28;;;;;;;;;;;4.60;99.90;;;4.08;59.38;96859.31;10547829;28;1937;-71
2022/03/20 08:14:31;;;;;;;;;;;4.80;99.90;;;4.24;58.31;96853.53;10533092;28;1863;-71
2022/03/20 08:19:35;;;;;;;;;;;5.00;99.90;;;4.62;57.19;96858.16;10564440;27;1870;-72
2022/03/20 08:24:39;;;;;;;;;;;5.30;99.90;;;4.80;56.25;96868.97;10576433;27;1751;-69
2022/03/20 08:29:44;;;;;;;;;;;5.50;99.90;;;4.59;57.12;96866.59;10567075;27;1918;-71
2022/03/20 08:34:47;;;;;;;;;;;5.60;99.90;;;4.94;56.44;96864.41;10584203;28;1765;-70
2022/03/20 08:39:51;;;;;;;;;;;5.70;99.90;;;5.23;55.23;96868.41;10557438;28;1828;-69
2022/03/20 08:44:55;;;;;;;;;;;5.90;99.90;;;5.45;54.84;96868.88;10557480;27;1780;-73
2022/03/20 08:49:58;;;;;;;;;;;6.20;99.90;;;5.90;53.09;96864.25;10537916;28;1917;-71
2022/03/20 08:55:04;;;;;;;;;;;6.50;99.90;;;6.41;52.56;96855.22;10563851;28;1944;-71
2022/03/20 09:00:07;;;;;;;;;;;7.40;99.90;;;6.70;50.96;96858.22;10539395;28;1794;-70
2022/03/20 09:05:11;;;;;;;;;;;7.60;99.90;;;7.00;49.03;96856.44;10559331;28;2328;-70
2022/03/20 09:10:15;;;;;;;;;;;7.70;99.90;;;7.18;49.03;96850.22;10552983;28;1917;-70
2022/03/20 09:15:18;;;;;;;;;;;7.90;99.90;;;7.57;47.57;96851.56;10538861;28;1799;-72
2022/03/20 09:20:21;;;;;;;;;;;8.20;99.90;;;7.59;47.49;96849.47;10552910;28;1879;-71
2022/03/20 09:25:24;;;;;;;;;;;8.50;99.90;;;7.80;47.80;96852.66;10554189;28;1839;-71
2022/03/20 09:30:27;;;;;;;;;;;8.50;99.90;;;8.26;46.02;96851.09;10566158;27;1981;-72
2022/03/20 09:35:31;;;;;;;;;;;9.00;99.90;;;8.44;43.83;96837.59;10568277;27;1822;-71
2022/03/20 09:40:35;;;;;;;;;;;;;;;8.67;43.64;96842.16;10547261;28;1853;-70
2022/03/20 09:45:39;;;;;;;;;;;9.40;99.90;;;8.96;42.97;96843.00;10547814;28;1857;-70
2022/03/20 09:50:42;;;;;;;;;;;9.60;99.90;;;9.00;42.30;96846.84;10561200;28;1917;-73
2022/03/20 09:55:46;;;;;;;;;;;9.80;99.90;;;9.09;43.19;96853.47;10568951;28;1986;-70
2022/03/20 10:00:49;;;;;;;;;;;9.90;99.90;;;8.85;43.74;96854.59;10550754;28;1822;-71
2022/03/20 10:05:52;;;;;;;;;;;9.70;99.90;;;9.17;41.56;96852.31;10587404;27;1879;-70
2022/03/20 10:10:55;;;;;;;;;;;9.90;99.90;;;9.03;42.29;96867.81;10547372;28;1913;-70
2022/03/20 10:15:58;;;;;;;;;;;9.90;99.90;;;9.04;42.49;96847.22;10540158;28;1843;-69
2022/03/20 10:21:01;;;;;;;;;;;10.10;99.90;;;9.34;41.44;96852.34;10553492;27;1786;-70
2022/03/20 10:26:04;;;;;;;;;;;10.10;99.90;;;9.42;41.42;96849.31;10550907;27;1816;-71
2022/03/20 10:31:07;;;;;;;;;;;10.10;99.90;;;9.78;41.04;96847.25;10562286;27;1981;-70
2022/03/20 10:36:10;;;;;;;;;;;10.50;99.90;;;9.68;40.45;96837.97;10544482;28;1895;-70
2022/03/20 10:41:13;;;;;;;;;;;10.60;99.90;;;10.02;39.58;96848.75;10558978;28;1812;-70
2022/03/20 10:46:16;;;;;;;;;;;10.80;99.90;;;9.95;39.32;96845.41;10547800;28;2168;-70
2022/03/20 10:51:20;;;;;;;;;;;10.80;99.90;;;9.97;38.57;96843.28;10550905;28;1984;-70
2022/03/20 10:56:22;;;;;;;;;;;10.90;99.90;;;10.07;38.18;96843.44;10564732;27;1863;-71
2022/03/20 11:01:25;;;;;;;;;;;11.00;99.90;;;10.16;37.40;96850.03;10560690;28;1833;-71
2022/03/20 11:06:28;;;;;;;;;;;11.00;99.90;;;10.26;38.31;96849.44;10572599;28;1807;-70
2022/03/20 11:11:31;;;;;;;;;;;11.10;99.70;;;10.52;38.37;96839.88;10545411;27;1922;-71
2022/03/20 11:16:35;;;;;;;;;;;11.30;99.90;;;10.41;38.56;96851.53;10541310;27;1889;-70
2022/03/20 11:21:38;;;;;;;;;;;11.40;99.90;;;10.65;38.95;96852.97;10542063;28;1857;-71
2022/03/20 11:26:41;;;;;;;;;;;11.40;99.90;;;10.97;38.26;96838.88;10563256;28;1851;-70
2022/03/20 11:31:45;;;;;;;;;;;11.60;99.90;;;10.82;37.86;96839.50;10562148;27;2033;-70
2022/03/20 11:36:50;;;;;;;;;;;11.70;99.90;;;10.89;37.30;96842.00;10567070;28;1879;-71
2022/03/20 11:41:53;;;;;;;;;;;11.80;99.90;;;10.70;38.03;96836.91;10539229;28;1865;-71
2022/03/20 11:46:56;;;;;;;;;;;11.60;99.90;;;10.85;37.38;96828.22;10575073;22;2773;-73
2022/03/20 11:52:00;;;;;;;;;;;11.70;99.90;;;11.00;36.96;96822.19;10517701;28;1985;-76
2022/03/20 11:57:03;;;;;;;;;;;11.80;99.90;;;11.03;36.42;96816.34;10517026;28;1928;-74
2022/03/20 12:02:06;;;;;;;;;;;12.00;99.90;;;11.36;35.66;96815.38;10492081;28;1858;-74
2022/03/20 12:07:10;;;;;;;;;;;12.10;99.90;;;11.28;36.24;96824.72;10487342;28;2072;-73
2022/03/20 12:12:13;;;;;;;;;;;12.30;99.90;;;11.54;34.98;96822.28;10488514;28;1969;-73
2022/03/20 12:17:16;;;;;;;;;;;12.30;99.90;;;11.68;34.72;96811.91;10502865;28;1855;-73
2022/03/20 12:22:19;;;;;;;;;;;12.50;99.90;;;11.56;34.97;96809.38;10493478;28;1808;-73
2022/03/20 12:27:23;;;;;;;;;;;12.50;99.90;;;11.80;34.53;96799.91;10525164;28;1764;-72
2022/03/20 12:32:26;;;;;;;;;;;12.60;99.90;;;11.97;33.08;96796.31;10495855;28;1982;-74
2022/03/20 12:37:30;;;;;;;;;;;12.70;99.90;;;11.87;32.69;96799.72;10496904;28;1813;-73
2022/03/20 12:42:33;;;;;;;;;;;12.80;99.90;;;11.67;33.12;96792.25;10509993;28;1681;-73
2022/03/20 12:47:36;;;;;;;;;;;12.70;99.90;;;11.80;32.95;96799.91;10499601;28;1838;-72
2022/03/20 12:52:39;;;;;;;;;;;12.60;99.90;;;11.78;32.88;96795.88;10513514;28;1975;-73
2022/03/20 12:57:42;;;;;;;;;;;12.60;99.90;;;11.99;33.23;96791.47;10514216;28;2208;-74
2022/03/20 13:02:45;;;;;;;;;;;12.70;99.90;;;11.95;31.99;96801.13;10495142;28;1829;-73
2022/03/20 13:07:49;;;;;;;;;;;12.80;99.90;;;12.04;33.33;96791.53;10503623;28;1840;-72
2022/03/20 13:12:52;;;;;;;;;;;12.80;99.90;;;12.22;33.25;96784.94;10512135;28;2189;-76
2022/03/20 13:17:55;;;;;;;;;;;12.90;99.90;;;12.32;32.98;96787.66;10500883;28;2019;-75
2022/03/20 13:22:58;;;;;;;;;;;13.00;99.90;;;12.15;33.91;96780.56;10508304;28;1947;-74
2022/03/20 13:28:01;;;;;;;;;;;13.00;99.90;;;12.04;33.80;96768.09;10523418;28;2180;-74
2022/03/20 13:33:04;;;;;;;;;;;13.00;99.90;;;11.93;32.98;96771.75;10516750;28;1911;-74
2022/03/20 13:38:08;;;;;;;;;;;13.00;99.90;;;12.03;33.39;96769.16;10495626;28;1887;-75
2022/03/20 13:43:11;;;;;;;;;;;12.80;99.90;;;12.05;32.92;96769.69;10495463;28;1766;-78
2022/03/20 13:48:15;;;;;;;;;;;12.90;99.90;;;12.02;32.79;96769.38;10502747;28;1862;-74
2022/03/20 13:53:18;;;;;;;;;;;13.00;99.90;;;12.10;32.32;96761.66;10508894;28;1936;-73
2022/03/20 13:58:22;;;;;;;;;;;12.90;99.90;;;12.11;32.74;96763.28;10519528;28;1931;-73
2022/03/20 14:03:26;;;;;;;;;;;12.90;99.90;;;12.17;32.26;96756.03;10498743;28;1817;-73
2022/03/20 14:08:30;;;;;;;;;;;13.00;99.90;;;12.05;32.21;96758.13;10497594;28;1779;-73
2022/03/20 14:13:34;;;;;;;;;;;12.90;99.90;;;12.10;32.05;96766.25;10520645;28;2021;-73
2022/03/20 14:18:37;;;;;;;;;;;13.00;99.90;;;12.09;33.13;96775.41;10498305;28;1854;-76
2022/03/20 14:23:41;;;;;;;;;;;12.90;99.90;;;12.07;33.90;96780.22;10505257;28;1931;-75
2022/03/20 14:28:44;;;;;;;;;;;13.00;99.90;;;12.14;32.78;96770.03;10513388;28;1906;-76
2022/03/20 14:44:29;;;;;;;;;;;12.90;99.90;;;12.05;34.14;96768.88;10515615;28;1920;-77
2022/03/20 14:49:34;;;;;;;;;;;12.80;99.90;;;11.99;34.32;96765.34;10510605;28;1909;-77
2022/03/20 14:54:38;;;;;;;;;;;12.80;99.90;;;12.09;33.21;96756.53;10503913;28;1910;-77
2022/03/20 14:59:41;;;;;;;;;;;13.00;99.90;;;12.07;33.34;96766.75;10516607;28;1804;-77
2022/03/20 15:04:47;;;;;;;;;;;12.90;99.90;;;11.97;34.93;96772.88;10512613;28;2054;-75
2022/03/20 15:15:23;;;;;;;;;;;12.80;99.90;;;11.82;35.60;96776.25;10442915;28;1825;-75
2022/03/20 15:20:27;;;;;;;;;;;12.70;99.90;;;11.74;35.21;96768.63;10495457;28;1869;-75
2022/03/20 15:25:30;;;;;;;;;;;12.60;99.90;;;11.64;35.55;96773.91;10493892;28;1823;-75
2022/03/20 15:30:33;;;;;;;;;;;12.60;99.90;;;11.61;35.21;96771.72;10521324;28;1905;-76
2022/03/20 15:35:36;;;;;;;;;;;12.50;99.90;;;11.60;35.69;96762.03;10523822;28;1805;-75
2022/03/20 15:40:39;;;;;;;;;;;12.40;99.90;;;11.57;35.41;96757.94;10527455;28;1933;-77
2022/03/20 15:45:43;;;;;;;;;;;12.50;99.90;;;11.55;35.65;96761.97;10513987;28;1831;-74
2022/03/20 15:50:46;;;;;;;;;;;12.40;99.90;;;11.55;35.64;96753.91;10494746;28;1906;-76
2022/03/20 15:55:49;;;;;;;;;;;12.30;99.90;;;11.49;35.29;96749.53;10513321;22;2133;-75
2022/03/20 16:00:51;;;;;;;;;;;12.30;99.90;;;11.45;35.73;96749.25;10477981;28;2248;-73
2022/03/20 16:05:55;;;;;;;;;;;12.20;99.90;;;11.40;34.69;96756.47;10471101;28;1711;-75
2022/03/20 16:10:59;;;;;;;;;;;12.30;99.90;;;11.42;34.48;96757.00;10511916;22;3604;-73
2022/03/20 16:16:03;;;;;;;;;;;12.10;99.90;;;11.37;35.10;96765.84;10527365;28;1835;-73
2022/03/20 16:21:06;;;;;;;;;;;12.30;99.90;;;11.29;35.85;96759.03;10505393;28;1784;-73
2022/03/20 16:31:29;;;;;;;;;;;12.10;99.90;;;11.27;35.74;96763.88;10497721;28;1972;-74
2022/03/20 16:36:34;;;;;;;;;;;12.10;99.90;;;11.16;35.85;96775.59;10512351;28;1859;-73
2022/03/20 16:41:39;;;;;;;;;;;12.00;99.90;;;11.03;36.09;96765.22;10496515;28;1860;-75
2022/03/20 16:46:42;;;;;;;;;;;12.00;99.90;;;10.87;35.88;96779.53;10516745;28;1803;-74
2022/03/20 16:51:46;;;;;;;;;;;11.80;99.90;;;10.71;36.14;96768.59;10504440;28;2102;-74
2022/03/20 16:56:50;;;;;;;;;;;11.70;99.90;;;10.52;36.30;96770.78;10497933;28;1767;-73
2022/03/20 17:01:53;;;;;;;;;;;11.50;99.90;;;10.36;36.78;96778.88;10494730;28;1760;-74
2022/03/20 17:06:57;;;;;;;;;;;11.30;99.90;;;10.15;37.07;96783.94;10511073;28;1791;-73
2022/03/20 17:12:00;;;;;;;;;;;11.20;99.90;;;10.00;37.06;96787.22;10491014;28;1979;-73
2022/03/20 17:17:03;;;;;;;;;;;11.00;99.90;;;9.80;37.76;96786.03;10530211;28;1769;-73
2022/03/20 17:22:06;;;;;;;;;;;10.70;99.90;;;9.54;38.07;96793.66;10525817;28;1981;-73
2022/03/20 17:27:16;;;;;;;;;;;10.60;99.90;;;9.29;39.26;96790.53;10544132;28;1851;-73
2022/03/20 17:32:19;;;;;;;;;;;10.30;99.90;;;9.18;38.61;96785.00;10524716;28;1981;-73
2022/03/20 17:37:22;;;;;;;;;;;10.10;99.90;;;9.04;38.73;96794.38;10539573;28;1811;-72
2022/03/20 17:42:26;;;;;;;;;;;10.00;99.90;;;8.87;38.94;96801.53;10494577;28;2209;-73
2022/03/20 17:47:33;;;;;;;;;;;9.90;99.90;;;8.62;40.01;96818.72;10497924;28;1800;-73
2022/03/20 17:52:37;;;;;;;;;;;9.70;99.90;;;8.48;39.39;96820.03;10520595;28;1988;-73
2022/03/20 17:57:40;;;;;;;;;;;9.60;99.90;;;8.31;39.10;96829.78;10506640;28;1784;-73
2022/03/20 18:08:04;;;;;;;;;;;9.20;99.90;;;7.93;38.68;96841.75;10518935;28;1834;-73
2022/03/20 18:13:08;;;;;;;;;;;9.00;99.90;;;7.87;39.38;96842.66;10527109;28;1910;-73
2022/03/20 18:18:11;;;;;;;;;;;8.90;99.90;;;7.86;39.10;96833.00;10523790;28;1869;-74
2022/03/20 18:23:14;;;;;;;;;;;8.80;99.90;;;7.64;39.91;96838.09;10499020;28;2323;-74
2022/03/20 18:28:17;;;;;;;;;;;8.70;99.90;;;7.54;39.92;96843.97;10517881;28;2049;-73
2022/03/20 18:33:21;;;;;;;;;;;8.50;99.90;;;7.33;41.11;96844.50;10496876;28;1984;-73
2022/03/20 18:38:26;;;;;;;;;;;8.40;99.90;;;7.28;40.72;96852.38;10521013;28;1842;-76
2022/03/20 18:43:38;;;;;;;;;;;8.30;99.90;;;7.24;39.84;96854.66;10504018;28;1938;-73
2022/03/20 18:48:41;;;;;;;;;;;8.20;99.90;;;7.12;39.87;96858.34;10519278;28;1842;-74
2022/03/20 18:53:44;;;;;;;;;;;8.10;99.90;;;7.01;39.58;96850.03;10524269;28;1887;-73
2022/03/20 18:58:48;;;;;;;;;;;8.10;99.90;;;6.86;40.74;96857.59;10515763;28;1771;-73
2022/03/20 19:03:50;;;;;;;;;;;7.90;99.90;;;6.74;41.27;96862.06;10534083;28;1859;-72
2022/03/20 19:08:55;;;;;;;;;;;7.80;98.60;;;6.67;42.34;96864.00;10520494;28;1867;-72
2022/03/20 19:13:59;;;;;;;;;;;7.80;98.70;;;6.62;40.71;96863.88;10528404;28;1903;-73
2022/03/20 19:19:02;;;;;;;;;;;7.60;99.90;;;6.50;41.72;96861.09;10514318;28;1827;-73
2022/03/20 19:24:07;;;;;;;;;;;7.60;99.90;;;6.46;41.32;96866.06;10520285;28;1851;-72
2022/03/20 19:29:10;;;;;;;;;;;7.50;99.90;;;6.41;40.91;96855.22;10492644;28;1923;-73
2022/03/20 19:44:56;;;;;;;;;;;7.20;95.00;;;6.16;40.76;96854.44;10520359;28;1819;-74
2022/03/20 19:49:59;;;;;;;;;;;7.10;94.60;;;6.11;40.94;96860.44;10500763;28;2005;-73
2022/03/20 19:55:03;;;;;;;;;;;7.10;94.10;;;6.03;41.65;96857.22;10514586;28;1967;-73
2022/03/20 20:00:06;;;;;;;;;;;7.00;94.30;;;5.98;42.21;96863.22;10493496;28;1888;-72
2022/03/20 20:05:09;;;;;;;;;;;7.00;94.80;;;5.87;42.69;96867.38;10514071;28;1873;-72
2022/03/20 20:10:13;;;;;;;;;;;7.00;95.20;;;5.81;42.46;96878.91;10511380;28;2072;-73
2022/03/20 20:15:16;;;;;;;;;;;6.90;95.50;;;5.69;42.72;96872.63;10496338;28;1845;-73
2022/03/20 20:20:20;;;;;;;;;;;6.70;96.90;;;5.67;43.49;96874.72;10492790;28;1954;-72
2022/03/20 20:25:23;;;;;;;;;;;6.70;97.70;;;5.52;43.47;96871.50;10508337;28;1879;-72
2022/03/20 20:30:27;;;;;;;;;;;6.60;99.90;;;5.43;43.65;96870.94;10499494;28;1905;-72
2022/03/20 20:35:30;;;;;;;;;;;6.40;99.90;;;5.30;44.23;96876.34;10496085;28;2049;-72
2022/03/20 20:40:35;;;;;;;;;;;6.40;88.30;;;5.18;44.21;96875.38;10496652;28;1695;-72
2022/03/20 20:45:38;;;;;;;;;;;6.30;88.30;;;5.27;43.71;96864.25;10499622;28;2178;-72
2022/03/20 20:50:41;;;;;;;;;;;6.20;88.00;;;5.12;43.82;96875.19;10491925;28;1922;-74
2022/03/20 20:55:46;;;;;;;;;;;6.10;99.90;;;5.06;44.17;96859.25;10516360;28;1772;-73
2022/03/20 21:00:49;;;;;;;;;;;6.10;99.90;;;5.02;43.75;96868.69;10499016;28;1872;-73
2022/03/20 21:05:53;;;;;;;;;;;6.00;99.90;;;5.01;44.34;96851.06;10519450;28;1818;-73
2022/03/20 21:10:58;;;;;;;;;;;6.00;99.90;;;4.75;45.06;96858.13;10509504;28;1909;-73
2022/03/20 21:16:02;;;;;;;;;;;5.90;99.90;;;4.79;45.18;96850.53;10512354;28;1861;-73
2022/03/20 21:21:05;;;;;;;;;;;5.80;99.90;;;4.79;45.21;96864.69;10508073;28;1827;-73
2022/03/20 21:26:08;;;;;;;;;;;5.80;99.90;;;4.60;45.17;96868.22;10501792;28;2054;-72
2022/03/20 21:31:11;;;;;;;;;;;5.70;99.90;;;4.62;45.09;96879.47;10515984;28;2164;-74
2022/03/20 21:36:15;;;;;;;;;;;5.60;99.90;;;4.68;44.47;96885.81;10502178;28;1917;-71
2022/03/20 21:41:17;;;;;;;;;;;5.70;99.90;;;4.64;44.73;96880.06;10495317;28;1882;-73
2022/03/20 21:46:23;;;;;;;;;;;5.70;99.90;;;4.54;44.36;96888.50;10499434;28;1733;-73
2022/03/20 21:51:27;;;;;;;;;;;5.60;99.90;;;4.58;45.47;96888.91;10496282;28;1989;-73
2022/03/20 21:56:29;;;;;;;;;;;5.60;99.90;;;4.38;45.86;96896.09;10520874;28;1819;-73
2022/03/20 22:01:34;;;;;;;;;;;5.50;99.90;;;4.20;46.31;96894.06;10510144;28;2145;-72
2022/03/20 22:06:38;;;;;;;;;;;5.40;99.90;;;4.13;47.23;96885.28;10500516;28;1835;-72
2022/03/20 22:11:42;;;;;;;;;;;5.20;99.90;;;4.05;47.00;96887.13;10494050;28;1969;-72
2022/03/20 22:16:45;;;;;;;;;;;5.10;99.90;;;4.07;47.08;96884.25;10502433;28;1926;-72
2022/03/20 22:21:48;;;;;;;;;;;5.10;99.90;;;4.05;47.11;96886.31;10516178;28;1765;-73
2022/03/20 22:26:52;;;;;;;;;;;5.10;99.90;;;3.98;47.69;96890.81;10513353;28;1878;-74
2022/03/20 22:31:55;;;;;;;;;;;5.00;99.90;;;3.92;47.30;96892.44;10499122;28;1942;-72
2022/03/20 22:42:21;;;;;;;;;;;4.90;99.90;;;4.07;45.43;96901.06;10467200;28;1778;-75
2022/03/20 22:47:25;;;;;;;;;;;5.00;99.90;;;3.98;46.28;96904.13;10456463;28;1917;-77
2022/03/20 22:52:28;;;;;;;;;;;4.90;99.90;;;3.92;45.72;96897.78;10449318;28;1997;-78
2022/03/20 22:57:31;;;;;;;;;;;4.80;99.90;;;3.76;45.88;96895.53;10451718;28;1881;-75
2022/03/20 23:02:35;;;;;;;;;;;4.80;99.90;;;3.72;46.34;96888.97;10453066;28;1904;-78
2022/03/20 23:07:38;;;;;;;;;;;4.70;99.90;;;3.52;46.41;96887.09;10451425;28;1850;-76
2022/03/20 23:12:41;;;;;;;;;;;4.60;99.90;;;3.35;47.94;96885.00;10443119;28;1992;-77
2022/03/20 23:17:44;;;;;;;;;;;4.50;99.90;;;3.27;48.16;96885.19;10457124;28;1878;-77
2022/03/20 23:22:49;;;;;;;;;;;4.50;99.90;;;3.12;48.73;96883.53;10456078;28;2230;-79
2022/03/20 23:27:51;;;;;;;;;;;4.10;99.90;;;2.96;49.05;96883.84;10475462;28;2225;-76
2022/03/20 23:32:55;;;;;;;;;;;4.20;99.90;;;3.07;48.28;96885.94;10490487;28;2191;-75
2022/03/20 23:37:58;;;;;;;;;;;4.10;99.90;;;3.12;47.91;96888.84;10468922;28;1823;-77
2022/03/20 23:43:19;;;;;;;;;;;4.00;99.90;;;3.01;47.98;96893.91;10445268;28;1824;-77
2022/03/20 23:48:23;;;;;;;;;;;4.10;99.90;;;2.88;48.95;96881.38;10450390;28;1826;-77
2022/03/20 23:53:26;;;;;;;;;;;3.90;99.90;;;2.80;49.29;96902.78;10464105;28;1946;-76
2022/03/20 23:58:30;;;;;;;;;;;3.80;99.90;;;2.76;49.84;96906.84;10472390;28;1861;-76
